Meridian NAS, Mississippi
Current Conditions -  °F | °C
As of 12:56 AM on Friday 28 Nov 2014 (Local Time) from KNMM Reporting Station
Clear Clear  
Wind Chill: 27°   Ceiling: Unl
Heat Index: 32°   Visibility: 10mi
Dew Point: 28°   Wind: 5mph
Humidity: 85%   Direction: 40°NE
Pressure: 30.46"   Gusts: NA
Location:  32.55°N, 88.57°W
Report Text: KNMM 280656Z AUTO 04004KT 10SM CLR 00/M02 A3046 RMK AO2 SLP329 T00001022
Loading
Personal Weather Stations






























Interactive Weather Map New forecast layout! Learn more

10-Day Weather Forecast

Advertisements
Track Severe Weather on mobile